sensor_id;sensor_type;location;lat;lon;timestamp;pressure;altitude;pressure_sealevel;temperature;humidity
28921;BME280;16035;53.594;9.952;2022-09-23T00:01:19;101944.22;;;12.72;59.86
28921;BME280;16035;53.594;9.952;2022-09-23T00:03:20;101931.16;;;12.74;59.82
28921;BME280;16035;53.594;9.952;2022-09-23T00:05:20;101928.44;;;12.74;59.56
28921;BME280;16035;53.594;9.952;2022-09-23T00:07:21;101933.06;;;12.73;59.56
28921;BME280;16035;53.594;9.952;2022-09-23T00:09:21;101928.66;;;12.72;59.72
28921;BME280;16035;53.594;9.952;2022-09-23T00:11:25;101928.91;;;12.71;59.81
28921;BME280;16035;53.594;9.952;2022-09-23T00:13:25;101921.81;;;12.70;59.60
28921;BME280;16035;53.594;9.952;2022-09-23T00:15:26;101922.31;;;12.67;59.48
28921;BME280;16035;53.594;9.952;2022-09-23T00:17:27;101924.13;;;12.61;59.61
28921;BME280;16035;53.594;9.952;2022-09-23T00:19:28;101916.19;;;12.59;59.52
28921;BME280;16035;53.594;9.952;2022-09-23T00:21:28;101921.66;;;12.59;59.93
28921;BME280;16035;53.594;9.952;2022-09-23T00:23:29;101911.56;;;12.60;59.70
28921;BME280;16035;53.594;9.952;2022-09-23T00:25:29;101918.66;;;12.61;59.49
28921;BME280;16035;53.594;9.952;2022-09-23T00:27:29;101914.28;;;12.60;59.78
28921;BME280;16035;53.594;9.952;2022-09-23T00:29:30;101916.50;;;12.63;59.59
28921;BME280;16035;53.594;9.952;2022-09-23T00:31:30;101908.94;;;12.65;59.53
28921;BME280;16035;53.594;9.952;2022-09-23T00:33:31;101914.47;;;12.70;59.39
28921;BME280;16035;53.594;9.952;2022-09-23T00:35:31;101911.41;;;12.67;59.38
28921;BME280;16035;53.594;9.952;2022-09-23T00:37:32;101908.31;;;12.63;59.44
28921;BME280;16035;53.594;9.952;2022-09-23T00:39:32;101906.94;;;12.60;59.47
28921;BME280;16035;53.594;9.952;2022-09-23T00:41:33;101904.22;;;12.60;59.49
28921;BME280;16035;53.594;9.952;2022-09-23T00:43:40;101900.31;;;12.56;59.34
28921;BME280;16035;53.594;9.952;2022-09-23T00:45:46;101901.88;;;12.52;59.08
28921;BME280;16035;53.594;9.952;2022-09-23T00:47:50;101902.63;;;12.48;59.34
28921;BME280;16035;53.594;9.952;2022-09-23T00:50:05;101896.69;;;12.51;59.47
28921;BME280;16035;53.594;9.952;2022-09-23T00:52:12;101904.03;;;12.50;59.29
28921;BME280;16035;53.594;9.952;2022-09-23T00:54:15;101900.16;;;12.46;59.40
28921;BME280;16035;53.594;9.952;2022-09-23T00:56:17;101897.91;;;12.43;59.25
28921;BME280;16035;53.594;9.952;2022-09-23T00:58:23;101896.47;;;12.40;59.35
28921;BME280;16035;53.594;9.952;2022-09-23T01:00:26;101898.88;;;12.37;59.49
28921;BME280;16035;53.594;9.952;2022-09-23T01:02:26;101897.22;;;12.36;59.50
28921;BME280;16035;53.594;9.952;2022-09-23T01:04:27;101881.94;;;12.35;59.65
28921;BME280;16035;53.594;9.952;2022-09-23T01:06:28;101884.22;;;12.26;59.57
28921;BME280;16035;53.594;9.952;2022-09-23T01:08:29;101885.66;;;12.29;59.55
28921;BME280;16035;53.594;9.952;2022-09-23T01:15:46;101872.84;;;12.29;59.62
28921;BME280;16035;53.594;9.952;2022-09-23T01:20:00;101869.44;;;12.22;59.38
28921;BME280;16035;53.594;9.952;2022-09-23T01:22:27;101869.44;;;12.22;59.59
28921;BME280;16035;53.594;9.952;2022-09-23T01:27:09;101869.59;;;12.16;60.17
28921;BME280;16035;53.594;9.952;2022-09-23T01:31:57;101862.19;;;12.28;59.73
28921;BME280;16035;53.594;9.952;2022-09-23T01:34:24;101860.38;;;12.33;59.99
28921;BME280;16035;53.594;9.952;2022-09-23T01:36:34;101859.41;;;12.39;59.99
28921;BME280;16035;53.594;9.952;2022-09-23T01:39:09;101857.50;;;12.40;59.42
28921;BME280;16035;53.594;9.952;2022-09-23T01:41:31;101846.34;;;12.42;59.54
28921;BME280;16035;53.594;9.952;2022-09-23T01:43:52;101846.25;;;12.36;59.46
28921;BME280;16035;53.594;9.952;2022-09-23T01:45:57;101844.59;;;12.35;59.42
28921;BME280;16035;53.594;9.952;2022-09-23T01:48:19;101837.03;;;12.37;59.54
28921;BME280;16035;53.594;9.952;2022-09-23T01:50:21;101838.41;;;12.40;59.67
28921;BME280;16035;53.594;9.952;2022-09-23T01:52:44;101845.63;;;12.46;59.37
28921;BME280;16035;53.594;9.952;2022-09-23T01:55:14;101833.78;;;12.40;59.35
28921;BME280;16035;53.594;9.952;2022-09-23T01:57:40;101835.59;;;12.35;59.29
28921;BME280;16035;53.594;9.952;2022-09-23T01:59:47;101839.66;;;12.32;59.15
28921;BME280;16035;53.594;9.952;2022-09-23T02:02:02;101839.53;;;12.27;59.22
28921;BME280;16035;53.594;9.952;2022-09-23T02:04:18;101832.78;;;12.30;59.43
28921;BME280;16035;53.594;9.952;2022-09-23T02:06:26;101827.25;;;12.25;59.60
28921;BME280;16035;53.594;9.952;2022-09-23T02:08:36;101843.34;;;12.26;59.38
28921;BME280;16035;53.594;9.952;2022-09-23T02:10:43;101829.72;;;12.26;59.45
28921;BME280;16035;53.594;9.952;2022-09-23T02:12:46;101836.72;;;12.22;59.25
28921;BME280;16035;53.594;9.952;2022-09-23T02:15:03;101829.16;;;12.24;59.31
28921;BME280;16035;53.594;9.952;2022-09-23T02:17:10;101827.25;;;12.25;59.54
28921;BME280;16035;53.594;9.952;2022-09-23T02:19:49;101821.72;;;12.20;59.35
28921;BME280;16035;53.594;9.952;2022-09-23T02:21:56;101817.91;;;12.21;59.21
28921;BME280;16035;53.594;9.952;2022-09-23T02:28:31;101812.94;;;12.18;59.38
28921;BME280;16035;53.594;9.952;2022-09-23T02:30:44;101804.28;;;12.21;59.63
28921;BME280;16035;53.594;9.952;2022-09-23T02:33:00;101807.56;;;12.23;59.44
28921;BME280;16035;53.594;9.952;2022-09-23T02:41:55;101800.41;;;12.17;59.19
28921;BME280;16035;53.594;9.952;2022-09-23T02:46:07;101795.50;;;12.19;59.39
28921;BME280;16035;53.594;9.952;2022-09-23T02:48:13;101797.41;;;12.18;59.29
28921;BME280;16035;53.594;9.952;2022-09-23T02:50:17;101796.25;;;12.14;58.99
28921;BME280;16035;53.594;9.952;2022-09-23T02:52:18;101794.25;;;12.09;59.32
28921;BME280;16035;53.594;9.952;2022-09-23T02:54:23;101792.69;;;12.13;59.41
28921;BME280;16035;53.594;9.952;2022-09-23T02:56:23;101798.06;;;12.08;59.11
28921;BME280;16035;53.594;9.952;2022-09-23T02:58:24;101791.72;;;12.03;59.39
28921;BME280;16035;53.594;9.952;2022-09-23T03:00:29;101785.91;;;11.99;59.36
28921;BME280;16035;53.594;9.952;2022-09-23T03:07:20;101787.44;;;12.07;59.68
28921;BME280;16035;53.594;9.952;2022-09-23T03:09:28;101786.25;;;12.03;59.58
28921;BME280;16035;53.594;9.952;2022-09-23T03:11:34;101782.19;;;12.05;59.46
28921;BME280;16035;53.594;9.952;2022-09-23T03:16:41;101772.25;;;12.11;59.52
28921;BME280;16035;53.594;9.952;2022-09-23T03:22:31;101770.41;;;12.17;59.65
28921;BME280;16035;53.594;9.952;2022-09-23T03:24:05;101771.84;;;12.19;59.36
28921;BME280;16035;53.594;9.952;2022-09-23T03:26:15;101768.25;;;12.19;59.45
28921;BME280;16035;53.594;9.952;2022-09-23T03:28:17;101759.34;;;12.23;59.35
28921;BME280;16035;53.594;9.952;2022-09-23T03:30:19;101760.34;;;12.17;59.41
28921;BME280;16035;53.594;9.952;2022-09-23T03:32:23;101768.44;;;12.12;59.37
28921;BME280;16035;53.594;9.952;2022-09-23T03:34:28;101760.81;;;12.14;59.63
28921;BME280;16035;53.594;9.952;2022-09-23T03:36:35;101760.81;;;12.14;59.46
28921;BME280;16035;53.594;9.952;2022-09-23T03:38:56;101755.06;;;12.10;59.48
28921;BME280;16035;53.594;9.952;2022-09-23T03:40:59;101752.66;;;12.14;59.27
28921;BME280;16035;53.594;9.952;2022-09-23T03:43:03;101753.25;;;12.16;59.65
28921;BME280;16035;53.594;9.952;2022-09-23T03:45:10;101755.16;;;12.16;59.44
28921;BME280;16035;53.594;9.952;2022-09-23T03:47:15;101748.38;;;12.18;59.38
28921;BME280;16035;53.594;9.952;2022-09-23T03:49:23;101754.91;;;12.17;59.60
28921;BME280;16035;53.594;9.952;2022-09-23T03:51:26;101750.78;;;12.14;59.50
28921;BME280;16035;53.594;9.952;2022-09-23T03:53:26;101750.25;;;12.18;59.70
28921;BME280;16035;53.594;9.952;2022-09-23T03:55:27;101746.81;;;12.22;59.16
28921;BME280;16035;53.594;9.952;2022-09-23T03:57:27;101745.72;;;12.23;59.41
28921;BME280;16035;53.594;9.952;2022-09-23T03:59:28;101749.28;;;12.24;59.50
28921;BME280;16035;53.594;9.952;2022-09-23T04:01:31;101726.16;;;12.26;59.47
28921;BME280;16035;53.594;9.952;2022-09-23T04:03:32;101734.94;;;12.28;59.34
28921;BME280;16035;53.594;9.952;2022-09-23T04:05:32;101741.69;;;12.26;59.38
28921;BME280;16035;53.594;9.952;2022-09-23T04:07:32;101734.41;;;12.31;59.30
28921;BME280;16035;53.594;9.952;2022-09-23T04:09:33;101733.03;;;12.29;59.42
28921;BME280;16035;53.594;9.952;2022-09-23T04:11:33;101727.50;;;12.24;59.32
28921;BME280;16035;53.594;9.952;2022-09-23T04:13:34;101733.16;;;12.22;59.40
28921;BME280;16035;53.594;9.952;2022-09-23T04:15:34;101726.06;;;12.21;59.16
28921;BME280;16035;53.594;9.952;2022-09-23T04:17:35;101720.97;;;12.25;59.46
28921;BME280;16035;53.594;9.952;2022-09-23T04:19:35;101714.16;;;12.27;59.31
28921;BME280;16035;53.594;9.952;2022-09-23T04:21:36;101718.88;;;12.32;59.27
28921;BME280;16035;53.594;9.952;2022-09-23T04:23:36;101712.31;;;12.28;59.23
28921;BME280;16035;53.594;9.952;2022-09-23T04:25:46;101710.56;;;12.22;59.31
28921;BME280;16035;53.594;9.952;2022-09-23T04:27:46;101709.47;;;12.23;59.26
28921;BME280;16035;53.594;9.952;2022-09-23T04:29:47;101710.56;;;12.22;59.32
28921;BME280;16035;53.594;9.952;2022-09-23T04:31:47;101711.63;;;12.21;59.79
28921;BME280;16035;53.594;9.952;2022-09-23T04:33:48;101703.72;;;12.19;59.12
28921;BME280;16035;53.594;9.952;2022-09-23T04:35:52;101714.28;;;12.16;59.09
28921;BME280;16035;53.594;9.952;2022-09-23T04:37:52;101701.81;;;12.20;59.22
28921;BME280;16035;53.594;9.952;2022-09-23T04:39:52;101700.81;;;12.26;59.10
28921;BME280;16035;53.594;9.952;2022-09-23T04:41:53;101698.56;;;12.23;59.05
28921;BME280;16035;53.594;9.952;2022-09-23T04:43:54;101700.25;;;12.24;59.16
28921;BME280;16035;53.594;9.952;2022-09-23T04:46:01;101706.50;;;12.24;59.19
28921;BME280;16035;53.594;9.952;2022-09-23T04:48:01;101701.28;;;12.23;59.10
28921;BME280;16035;53.594;9.952;2022-09-23T04:50:02;101699.91;;;12.20;59.15
28921;BME280;16035;53.594;9.952;2022-09-23T04:52:03;101697.09;;;12.15;59.12
28921;BME280;16035;53.594;9.952;2022-09-23T04:54:04;101697.41;;;12.19;59.10
28921;BME280;16035;53.594;9.952;2022-09-23T04:56:08;101688.75;;;12.22;59.14
28921;BME280;16035;53.594;9.952;2022-09-23T04:58:09;101694.78;;;12.24;59.06
28921;BME280;16035;53.594;9.952;2022-09-23T05:00:10;101693.13;;;12.23;59.00
28921;BME280;16035;53.594;9.952;2022-09-23T05:02:14;101692.28;;;12.22;58.98
28921;BME280;16035;53.594;9.952;2022-09-23T05:04:15;101693.13;;;12.23;59.10
28921;BME280;16035;53.594;9.952;2022-09-23T05:06:15;101685.47;;;12.20;59.12
28921;BME280;16035;53.594;9.952;2022-09-23T05:08:15;101694.94;;;12.17;59.26
28921;BME280;16035;53.594;9.952;2022-09-23T05:10:16;101690.56;;;12.16;59.45
28921;BME280;16035;53.594;9.952;2022-09-23T05:12:16;101693.63;;;12.20;59.53
28921;BME280;16035;53.594;9.952;2022-09-23T05:14:17;101689.75;;;12.16;59.28
28921;BME280;16035;53.594;9.952;2022-09-23T05:16:18;101689.69;;;12.10;59.46
28921;BME280;16035;53.594;9.952;2022-09-23T05:18:19;101690.50;;;12.11;59.74
28921;BME280;16035;53.594;9.952;2022-09-23T05:20:19;101691.13;;;12.18;59.37
28921;BME280;16035;53.594;9.952;2022-09-23T05:22:19;101691.47;;;12.22;59.37
28921;BME280;16035;53.594;9.952;2022-09-23T05:24:20;101694.78;;;12.24;59.17
28921;BME280;16035;53.594;9.952;2022-09-23T05:26:27;101690.72;;;12.26;59.14
28921;BME280;16035;53.594;9.952;2022-09-23T05:28:29;101691.53;;;12.27;59.12
28921;BME280;16035;53.594;9.952;2022-09-23T05:30:32;101685.03;;;12.28;58.94
28921;BME280;16035;53.594;9.952;2022-09-23T05:32:32;101683.38;;;12.27;59.12
28921;BME280;16035;53.594;9.952;2022-09-23T05:34:33;101686.34;;;12.25;58.99
28921;BME280;16035;53.594;9.952;2022-09-23T05:36:34;101689.91;;;12.26;59.20
28921;BME280;16035;53.594;9.952;2022-09-23T05:38:35;101684.28;;;12.32;59.30
28921;BME280;16035;53.594;9.952;2022-09-23T05:40:35;101684.59;;;12.36;59.45
28921;BME280;16035;53.594;9.952;2022-09-23T05:42:36;101680.56;;;12.38;59.33
28921;BME280;16035;53.594;9.952;2022-09-23T05:44:36;101688.47;;;12.40;59.08
28921;BME280;16035;53.594;9.952;2022-09-23T05:46:36;101688.75;;;12.38;59.52
28921;BME280;16035;53.594;9.952;2022-09-23T05:48:38;101689.88;;;12.43;59.11
28921;BME280;16035;53.594;9.952;2022-09-23T05:50:38;101685.00;;;12.45;59.01
28921;BME280;16035;53.594;9.952;2022-09-23T05:52:39;101685.59;;;12.47;59.01
28921;BME280;16035;53.594;9.952;2022-09-23T05:54:40;101689.97;;;12.48;59.09
28921;BME280;16035;53.594;9.952;2022-09-23T05:56:40;101682.34;;;12.50;59.12
28921;BME280;16035;53.594;9.952;2022-09-23T05:58:41;101684.84;;;12.51;58.84
28921;BME280;16035;53.594;9.952;2022-09-23T06:00:42;101679.13;;;12.53;58.75
28921;BME280;16035;53.594;9.952;2022-09-23T06:02:43;101688.44;;;12.57;58.81
28921;BME280;16035;53.594;9.952;2022-09-23T06:04:43;101679.44;;;12.56;58.59
28921;BME280;16035;53.594;9.952;2022-09-23T06:06:44;101683.81;;;12.57;58.72
28921;BME280;16035;53.594;9.952;2022-09-23T06:08:45;101680.59;;;12.60;58.54
28921;BME280;16035;53.594;9.952;2022-09-23T06:10:45;101685.56;;;12.63;58.76
28921;BME280;16035;53.594;9.952;2022-09-23T06:12:47;101671.94;;;12.63;58.73
28921;BME280;16035;53.594;9.952;2022-09-23T06:14:48;101686.38;;;12.64;58.49
28921;BME280;16035;53.594;9.952;2022-09-23T06:16:49;101676.84;;;12.67;58.72
28921;BME280;16035;53.594;9.952;2022-09-23T06:18:50;101675.22;;;12.65;58.60
28921;BME280;16035;53.594;9.952;2022-09-23T06:20:50;101679.03;;;12.64;58.45
28921;BME280;16035;53.594;9.952;2022-09-23T06:22:51;101670.84;;;12.64;58.56
28921;BME280;16035;53.594;9.952;2022-09-23T06:24:51;101677.19;;;12.70;58.54
28921;BME280;16035;53.594;9.952;2022-09-23T06:26:52;101675.00;;;12.72;58.38
28921;BME280;16035;53.594;9.952;2022-09-23T06:28:52;101679.16;;;12.75;58.30
28921;BME280;16035;53.594;9.952;2022-09-23T06:30:56;101679.16;;;12.75;58.65
28921;BME280;16035;53.594;9.952;2022-09-23T06:32:57;101677.84;;;12.77;58.65
28921;BME280;16035;53.594;9.952;2022-09-23T06:34:57;101679.16;;;12.75;58.53
28921;BME280;16035;53.594;9.952;2022-09-23T06:36:58;101672.88;;;12.74;58.34
28921;BME280;16035;53.594;9.952;2022-09-23T06:38:58;101672.88;;;12.74;58.36
28921;BME280;16035;53.594;9.952;2022-09-23T06:40:59;101675.34;;;12.76;58.77
28921;BME280;16035;53.594;9.952;2022-09-23T06:43:00;101669.88;;;12.76;58.13
28921;BME280;16035;53.594;9.952;2022-09-23T06:45:01;101676.44;;;12.75;58.30
28921;BME280;16035;53.594;9.952;2022-09-23T06:47:01;101678.59;;;12.73;58.13
28921;BME280;16035;53.594;9.952;2022-09-23T06:49:01;101672.63;;;12.76;58.11
28921;BME280;16035;53.594;9.952;2022-09-23T06:51:04;101668.81;;;12.77;58.13
28921;BME280;16035;53.594;9.952;2022-09-23T06:53:06;101675.34;;;12.76;58.20
28921;BME280;16035;53.594;9.952;2022-09-23T06:55:07;101679.22;;;12.80;58.26
28921;BME280;16035;53.594;9.952;2022-09-23T06:57:08;101677.91;;;12.82;58.09
28921;BME280;16035;53.594;9.952;2022-09-23T06:59:09;101672.44;;;12.82;58.05
28921;BME280;16035;53.594;9.952;2022-09-23T07:01:14;101674.66;;;12.85;58.57
28921;BME280;16035;53.594;9.952;2022-09-23T07:03:16;101681.84;;;12.92;58.28
28921;BME280;16035;53.594;9.952;2022-09-23T07:05:16;101678.06;;;12.98;58.28
28921;BME280;16035;53.594;9.952;2022-09-23T07:07:17;101682.22;;;13.00;58.12
28921;BME280;16035;53.594;9.952;2022-09-23T07:09:17;101685.50;;;13.02;58.31
28921;BME280;16035;53.594;9.952;2022-09-23T07:11:18;101676.88;;;13.10;58.07
28921;BME280;16035;53.594;9.952;2022-09-23T07:13:22;101678.00;;;13.14;58.11
28921;BME280;16035;53.594;9.952;2022-09-23T07:15:22;101681.63;;;13.20;57.81
28921;BME280;16035;53.594;9.952;2022-09-23T07:17:23;101676.50;;;13.24;58.13
28921;BME280;16035;53.594;9.952;2022-09-23T07:19:24;101680.16;;;13.34;57.99
28921;BME280;16035;53.594;9.952;2022-09-23T07:21:25;101675.34;;;13.42;57.75
28921;BME280;16035;53.594;9.952;2022-09-23T07:23:26;101685.53;;;13.51;58.03
28921;BME280;16035;53.594;9.952;2022-09-23T07:25:27;101681.78;;;13.57;57.63
28921;BME280;16035;53.594;9.952;2022-09-23T07:27:28;101679.69;;;13.70;57.83
28921;BME280;16035;53.594;9.952;2022-09-23T07:29:28;101678.97;;;13.79;57.42
28921;BME280;16035;53.594;9.952;2022-09-23T07:31:30;101684.16;;;13.76;57.17
28921;BME280;16035;53.594;9.952;2022-09-23T07:33:31;101684.44;;;13.79;57.08
28921;BME280;16035;53.594;9.952;2022-09-23T07:35:32;101687.81;;;13.91;57.21
28921;BME280;16035;53.594;9.952;2022-09-23T07:37:33;101686.00;;;14.02;57.02
28921;BME280;16035;53.594;9.952;2022-09-23T07:39:33;101692.31;;;14.03;56.70
28921;BME280;16035;53.594;9.952;2022-09-23T07:41:35;101686.88;;;14.08;57.25
28921;BME280;16035;53.594;9.952;2022-09-23T07:43:37;101684.50;;;14.22;57.25
28921;BME280;16035;53.594;9.952;2022-09-23T07:45:39;101685.97;;;14.34;56.56
28921;BME280;16035;53.594;9.952;2022-09-23T07:47:42;101681.66;;;14.44;56.56
28921;BME280;16035;53.594;9.952;2022-09-23T07:49:43;101686.38;;;14.48;56.76
28921;BME280;16035;53.594;9.952;2022-09-23T07:51:43;101686.91;;;14.50;56.56
28921;BME280;16035;53.594;9.952;2022-09-23T07:53:47;101684.19;;;14.55;56.27
28921;BME280;16035;53.594;9.952;2022-09-23T07:55:55;101680.44;;;14.61;56.64
28921;BME280;16035;53.594;9.952;2022-09-23T07:57:56;101681.06;;;14.74;56.28
28921;BME280;16035;53.594;9.952;2022-09-23T07:59:56;101684.38;;;14.86;56.16
28921;BME280;16035;53.594;9.952;2022-09-23T08:01:57;101684.44;;;15.01;56.14
28921;BME280;16035;53.594;9.952;2022-09-23T08:03:59;101690.25;;;15.10;55.94
28921;BME280;16035;53.594;9.952;2022-09-23T08:06:10;101685.31;;;15.17;55.71
28921;BME280;16035;53.594;9.952;2022-09-23T08:08:11;101685.91;;;15.24;55.52
28921;BME280;16035;53.594;9.952;2022-09-23T08:10:13;101693.59;;;15.27;55.52
28921;BME280;16035;53.594;9.952;2022-09-23T08:12:16;101686.47;;;15.31;55.67
28921;BME280;16035;53.594;9.952;2022-09-23T08:14:17;101683.19;;;15.34;55.10
28921;BME280;16035;53.594;9.952;2022-09-23T08:16:18;101685.91;;;15.39;55.10
28921;BME280;16035;53.594;9.952;2022-09-23T08:18:19;101690.34;;;15.46;55.28
28921;BME280;16035;53.594;9.952;2022-09-23T08:20:19;101685.44;;;15.63;55.35
28921;BME280;16035;53.594;9.952;2022-09-23T08:22:38;101684.41;;;15.89;54.91
28921;BME280;16035;53.594;9.952;2022-09-23T08:24:38;101689.03;;;16.14;54.40
28921;BME280;16035;53.594;9.952;2022-09-23T08:26:39;101680.78;;;16.40;54.14
28921;BME280;16035;53.594;9.952;2022-09-23T08:28:39;101687.59;;;16.63;53.79
28921;BME280;16035;53.594;9.952;2022-09-23T08:30:40;101677.44;;;16.79;53.37
28921;BME280;16035;53.594;9.952;2022-09-23T08:32:41;101672.06;;;17.13;53.32
28921;BME280;16035;53.594;9.952;2022-09-23T08:34:41;101673.81;;;17.87;52.68
28921;BME280;16035;53.594;9.952;2022-09-23T08:36:42;101668.00;;;18.76;51.40
28921;BME280;16035;53.594;9.952;2022-09-23T08:38:42;101663.56;;;19.61;50.36
28921;BME280;16035;53.594;9.952;2022-09-23T08:40:45;101658.78;;;20.32;49.17
28921;BME280;16035;53.594;9.952;2022-09-23T08:42:47;101654.69;;;20.98;48.31
28921;BME280;16035;53.594;9.952;2022-09-23T08:44:51;101661.63;;;21.37;47.39
28921;BME280;16035;53.594;9.952;2022-09-23T08:49:05;101648.31;;;21.84;46.56
28921;BME280;16035;53.594;9.952;2022-09-23T08:51:16;101647.66;;;22.09;46.46
28921;BME280;16035;53.594;9.952;2022-09-23T08:53:27;101641.94;;;22.28;45.77
28921;BME280;16035;53.594;9.952;2022-09-23T08:55:32;101641.44;;;22.04;44.79
28921;BME280;16035;53.594;9.952;2022-09-23T08:59:42;101647.22;;;20.43;46.29
28921;BME280;16035;53.594;9.952;2022-09-23T09:01:45;101647.34;;;19.92;47.42
28921;BME280;16035;53.594;9.952;2022-09-23T09:05:51;101643.66;;;19.26;48.58
28921;BME280;16035;53.594;9.952;2022-09-23T09:07:54;101638.50;;;19.19;48.86
28921;BME280;16035;53.594;9.952;2022-09-23T09:10:11;101648.34;;;19.07;48.35
28921;BME280;16035;53.594;9.952;2022-09-23T09:12:21;101640.03;;;18.88;48.57
28921;BME280;16035;53.594;9.952;2022-09-23T09:14:40;101638.91;;;18.65;48.93
28921;BME280;16035;53.594;9.952;2022-09-23T09:18:54;101640.97;;;18.78;49.07
28921;BME280;16035;53.594;9.952;2022-09-23T09:21:11;101637.88;;;18.85;48.63
28921;BME280;16035;53.594;9.952;2022-09-23T09:23:21;101637.72;;;18.76;48.51
28921;BME280;16035;53.594;9.952;2022-09-23T09:25:28;101632.66;;;18.83;49.17
28921;BME280;16035;53.594;9.952;2022-09-23T09:27:32;101629.97;;;18.97;49.27
28921;BME280;16035;53.594;9.952;2022-09-23T09:29:38;101630.38;;;19.09;49.13
28921;BME280;16035;53.594;9.952;2022-09-23T09:31:46;101629.56;;;19.09;48.58
28921;BME280;16035;53.594;9.952;2022-09-23T09:33:55;101626.53;;;19.29;48.79
28921;BME280;16035;53.594;9.952;2022-09-23T09:36:07;101626.69;;;19.38;48.32
28921;BME280;16035;53.594;9.952;2022-09-23T09:38:09;101625.53;;;19.58;48.82
28921;BME280;16035;53.594;9.952;2022-09-23T09:40:10;101623.91;;;20.36;48.25
28921;BME280;16035;53.594;9.952;2022-09-23T09:42:16;101617.88;;;20.75;47.13
28921;BME280;16035;53.594;9.952;2022-09-23T09:46:51;101615.13;;;20.48;47.17
28921;BME280;16035;53.594;9.952;2022-09-23T09:48:57;101611.31;;;20.85;47.37
28921;BME280;16035;53.594;9.952;2022-09-23T09:51:16;101602.91;;;21.04;46.44
28921;BME280;16035;53.594;9.952;2022-09-23T09:53:28;101594.09;;;21.02;46.38
28921;BME280;16035;53.594;9.952;2022-09-23T09:55:29;101598.84;;;21.60;46.61
28921;BME280;16035;53.594;9.952;2022-09-23T09:57:43;101596.72;;;22.50;46.10
28921;BME280;16035;53.594;9.952;2022-09-23T09:59:45;101588.91;;;23.27;44.68
28921;BME280;16035;53.594;9.952;2022-09-23T10:01:45;101589.84;;;23.74;44.08
28921;BME280;16035;53.594;9.952;2022-09-23T10:03:46;101590.94;;;23.99;43.19
28921;BME280;16035;53.594;9.952;2022-09-23T10:05:50;101589.94;;;24.42;42.94
28921;BME280;16035;53.594;9.952;2022-09-23T10:07:52;101574.97;;;24.64;42.51
28921;BME280;16035;53.594;9.952;2022-09-23T10:09:52;101588.78;;;24.52;42.18
28921;BME280;16035;53.594;9.952;2022-09-23T10:12:07;101578.66;;;24.77;42.19
28921;BME280;16035;53.594;9.952;2022-09-23T10:14:11;101574.09;;;24.51;41.47
28921;BME280;16035;53.594;9.952;2022-09-23T10:16:14;101577.34;;;24.06;41.68
28921;BME280;16035;53.594;9.952;2022-09-23T10:18:19;101576.78;;;23.57;42.02
28921;BME280;16035;53.594;9.952;2022-09-23T10:20:22;101567.19;;;23.11;42.49
28921;BME280;16035;53.594;9.952;2022-09-23T10:22:31;101564.34;;;22.59;42.42
28921;BME280;16035;53.594;9.952;2022-09-23T10:24:33;101570.00;;;22.37;43.42
28921;BME280;16035;53.594;9.952;2022-09-23T10:26:51;101564.25;;;22.25;42.84
28921;BME280;16035;53.594;9.952;2022-09-23T10:28:54;101571.50;;;22.12;43.44
28921;BME280;16035;53.594;9.952;2022-09-23T10:31:09;101578.44;;;21.78;43.18
28921;BME280;16035;53.594;9.952;2022-09-23T10:33:25;101571.50;;;21.58;43.11
28921;BME280;16035;53.594;9.952;2022-09-23T10:35:26;101579.41;;;21.51;44.04
28921;BME280;16035;53.594;9.952;2022-09-23T10:39:30;101574.91;;;21.19;44.43
28921;BME280;16035;53.594;9.952;2022-09-23T10:42:05;101571.75;;;20.89;43.81
28921;BME280;16035;53.594;9.952;2022-09-23T10:44:32;101571.75;;;20.76;44.94
28921;BME280;16035;53.594;9.952;2022-09-23T10:47:01;101568.06;;;20.66;44.92
28921;BME280;16035;53.594;9.952;2022-09-23T10:51:18;101566.78;;;20.50;45.34
28921;BME280;16035;53.594;9.952;2022-09-23T10:58:33;101563.78;;;20.47;44.89
28921;BME280;16035;53.594;9.952;2022-09-23T11:00:53;101560.81;;;20.43;45.46
28921;BME280;16035;53.594;9.952;2022-09-23T11:03:36;101560.00;;;20.42;45.48
28921;BME280;16035;53.594;9.952;2022-09-23T11:09:04;101552.22;;;20.31;44.89
28921;BME280;16035;53.594;9.952;2022-09-23T11:12:44;101541.41;;;20.20;45.47
28921;BME280;16035;53.594;9.952;2022-09-23T11:14:52;101541.50;;;20.15;45.90
28921;BME280;16035;53.594;9.952;2022-09-23T11:19:17;101542.75;;;20.09;45.40
28921;BME280;16035;53.594;9.952;2022-09-23T11:26:51;101530.84;;;20.09;45.37
28921;BME280;16035;53.594;9.952;2022-09-23T11:31:58;101524.94;;;20.02;45.62
28921;BME280;16035;53.594;9.952;2022-09-23T11:36:45;101519.81;;;19.95;45.53
28921;BME280;16035;53.594;9.952;2022-09-23T11:38:49;101519.63;;;19.91;45.91
28921;BME280;16035;53.594;9.952;2022-09-23T11:40:58;101510.00;;;19.89;45.64
28921;BME280;16035;53.594;9.952;2022-09-23T11:43:14;101505.53;;;19.93;45.31
28921;BME280;16035;53.594;9.952;2022-09-23T11:45:21;101509.91;;;19.94;44.96
28921;BME280;16035;53.594;9.952;2022-09-23T11:47:32;101510.00;;;19.89;44.89
28921;BME280;16035;53.594;9.952;2022-09-23T11:49:36;101502.56;;;19.89;44.95
28921;BME280;16035;53.594;9.952;2022-09-23T11:52:04;101500.00;;;19.93;44.57
28921;BME280;16035;53.594;9.952;2022-09-23T11:54:23;101495.41;;;19.88;44.73
28921;BME280;16035;53.594;9.952;2022-09-23T11:56:33;101498.47;;;19.87;44.80
28921;BME280;16035;53.594;9.952;2022-09-23T11:58:43;101495.63;;;19.78;44.80
28921;BME280;16035;53.594;9.952;2022-09-23T12:00:58;101497.03;;;19.76;44.57
28921;BME280;16035;53.594;9.952;2022-09-23T12:03:20;101491.50;;;19.76;45.07
28921;BME280;16035;53.594;9.952;2022-09-23T12:05:32;101493.47;;;19.75;45.27
28921;BME280;16035;53.594;9.952;2022-09-23T12:08:00;101500.28;;;19.78;45.53
28921;BME280;16035;53.594;9.952;2022-09-23T12:10:06;101495.63;;;19.78;45.71